Terminal Aerodrome Forecast
Issued by NWS

Home | Current Version | Previous Version | Text Only | Print | Product List | Glossary On
Versions: 1 2 3 4 5 6 7 8 9 10 11 12 13 14 15 16 17 18
000
FTUS44 KTSA 052326
TAFXNA
TAF
KXNA 052326Z 0600/0624 14008KT P6SM VCTS SCT040CB BKN200
     FM060200 17005KT P6SM BKN200
     FM061000 19005KT P6SM OVC015
     FM061700 19012G20KT P6SM SCT025 BKN040=

USA.gov is the U.S. government's official web portal to all federal, state and local government web resources and services.